sensor_id;sensor_type;location;lat;lon;timestamp;pressure;altitude;pressure_sealevel;temperature;humidity
31501;BME280;31032;49.512;10.892;2022-08-05T00:02:23;97463.13;;;24.59;53.68
31501;BME280;31032;49.512;10.892;2022-08-05T00:04:48;97465.13;;;24.63;54.24
31501;BME280;31032;49.512;10.892;2022-08-05T00:07:14;97463.97;;;25.00;53.80
31501;BME280;31032;49.512;10.892;2022-08-05T00:09:39;97459.41;;;24.89;53.91
31501;BME280;31032;49.512;10.892;2022-08-05T00:12:05;97457.72;;;24.65;54.59
31501;BME280;31032;49.512;10.892;2022-08-05T00:14:30;97466.22;;;24.44;56.34
31501;BME280;31032;49.512;10.892;2022-08-05T00:16:56;97455.22;;;24.41;56.38
31501;BME280;31032;49.512;10.892;2022-08-05T00:19:22;97456.19;;;24.28;57.75
31501;BME280;31032;49.512;10.892;2022-08-05T00:21:48;97454.28;;;24.47;56.63
31501;BME280;31032;49.512;10.892;2022-08-05T00:24:13;97452.25;;;24.60;56.03
31501;BME280;31032;49.512;10.892;2022-08-05T00:26:38;97453.94;;;24.73;56.59
31501;BME280;31032;49.512;10.892;2022-08-05T00:29:04;97443.94;;;24.27;57.48
31501;BME280;31032;49.512;10.892;2022-08-05T00:31:29;97448.88;;;24.24;58.02
31501;BME280;31032;49.512;10.892;2022-08-05T00:33:55;97448.91;;;24.35;57.84
31501;BME280;31032;49.512;10.892;2022-08-05T00:36:20;97442.47;;;24.13;58.16
31501;BME280;31032;49.512;10.892;2022-08-05T00:38:48;97440.16;;;23.98;58.24
31501;BME280;31032;49.512;10.892;2022-08-05T00:41:13;97450.28;;;23.72;60.23
31501;BME280;31032;49.512;10.892;2022-08-05T00:43:38;97443.59;;;24.05;59.25
31501;BME280;31032;49.512;10.892;2022-08-05T00:46:03;97435.22;;;23.66;60.62
31501;BME280;31032;49.512;10.892;2022-08-05T00:48:29;97435.75;;;23.92;59.53
31501;BME280;31032;49.512;10.892;2022-08-05T00:50:54;97440.53;;;23.66;61.02
31501;BME280;31032;49.512;10.892;2022-08-05T00:53:21;97433.69;;;23.76;60.21
31501;BME280;31032;49.512;10.892;2022-08-05T00:55:47;97427.84;;;23.68;61.10
31501;BME280;31032;49.512;10.892;2022-08-05T00:58:14;97431.31;;;23.68;60.07
31501;BME280;31032;49.512;10.892;2022-08-05T01:00:44;97438.47;;;23.68;60.13
31501;BME280;31032;49.512;10.892;2022-08-05T01:03:09;97434.47;;;23.95;58.88
31501;BME280;31032;49.512;10.892;2022-08-05T01:05:35;97425.47;;;23.96;57.82
31501;BME280;31032;49.512;10.892;2022-08-05T01:08:01;97429.59;;;23.74;59.71
31501;BME280;31032;49.512;10.892;2022-08-05T01:10:35;97432.25;;;23.74;59.55
31501;BME280;31032;49.512;10.892;2022-08-05T01:13:14;97425.34;;;23.73;60.05
31501;BME280;31032;49.512;10.892;2022-08-05T01:15:45;97415.72;;;23.72;59.29
31501;BME280;31032;49.512;10.892;2022-08-05T01:18:22;97420.88;;;23.85;58.62
31501;BME280;31032;49.512;10.892;2022-08-05T01:21:06;97416.91;;;23.94;58.14
31501;BME280;31032;49.512;10.892;2022-08-05T01:29:16;97422.38;;;23.81;59.83
31501;BME280;31032;49.512;10.892;2022-08-05T01:31:47;97414.53;;;23.86;59.50
31501;BME280;31032;49.512;10.892;2022-08-05T01:34:30;97416.00;;;24.00;58.08
31501;BME280;31032;49.512;10.892;2022-08-05T01:37:08;97411.81;;;24.10;57.50
31501;BME280;31032;49.512;10.892;2022-08-05T01:39:36;97408.00;;;24.18;56.89
31501;BME280;31032;49.512;10.892;2022-08-05T01:42:04;97414.88;;;24.26;56.55
31501;BME280;31032;49.512;10.892;2022-08-05T01:44:30;97408.28;;;24.28;57.47
31501;BME280;31032;49.512;10.892;2022-08-05T01:46:58;97414.06;;;24.25;57.37
31501;BME280;31032;49.512;10.892;2022-08-05T01:49:26;97424.53;;;24.38;57.26
31501;BME280;31032;49.512;10.892;2022-08-05T01:51:57;97434.72;;;24.41;56.46
31501;BME280;31032;49.512;10.892;2022-08-05T01:54:27;97429.59;;;24.10;58.49
31501;BME280;31032;49.512;10.892;2022-08-05T01:56:55;97427.59;;;23.69;59.52
31501;BME280;31032;49.512;10.892;2022-08-05T01:59:22;97429.69;;;23.49;60.15
31501;BME280;31032;49.512;10.892;2022-08-05T02:01:53;97429.59;;;23.38;60.33
31501;BME280;31032;49.512;10.892;2022-08-05T02:04:21;97425.28;;;23.37;61.18
31501;BME280;31032;49.512;10.892;2022-08-05T02:06:47;97425.47;;;23.42;60.61
31501;BME280;31032;49.512;10.892;2022-08-05T02:09:13;97421.91;;;23.66;59.67
31501;BME280;31032;49.512;10.892;2022-08-05T02:11:57;97418.06;;;23.62;60.54
31501;BME280;31032;49.512;10.892;2022-08-05T02:14:31;97429.16;;;23.59;60.82
31501;BME280;31032;49.512;10.892;2022-08-05T02:17:04;97429.72;;;23.43;61.86
31501;BME280;31032;49.512;10.892;2022-08-05T02:19:33;97422.31;;;23.26;62.07
31501;BME280;31032;49.512;10.892;2022-08-05T02:22:22;97431.22;;;23.14;63.37
31501;BME280;31032;49.512;10.892;2022-08-05T02:24:54;97433.53;;;23.28;63.03
31501;BME280;31032;49.512;10.892;2022-08-05T02:27:20;97434.97;;;23.31;62.22
31501;BME280;31032;49.512;10.892;2022-08-05T02:29:47;97430.50;;;23.50;nan
31501;BME280;31032;49.512;10.892;2022-08-05T02:32:16;97440.31;;;23.24;63.02
31501;BME280;31032;49.512;10.892;2022-08-05T02:34:43;97435.78;;;23.07;63.60
31501;BME280;31032;49.512;10.892;2022-08-05T02:37:11;97430.09;;;23.03;64.01
31501;BME280;31032;49.512;10.892;2022-08-05T02:39:38;97425.31;;;22.87;64.66
31501;BME280;31032;49.512;10.892;2022-08-05T02:42:06;97417.38;;;22.81;64.90
31501;BME280;31032;49.512;10.892;2022-08-05T02:44:34;97419.50;;;22.72;64.79
31501;BME280;31032;49.512;10.892;2022-08-05T02:47:02;97414.63;;;22.69;65.87
31501;BME280;31032;49.512;10.892;2022-08-05T02:49:34;97418.06;;;22.76;65.77
31501;BME280;31032;49.512;10.892;2022-08-05T02:52:00;97419.50;;;22.97;64.73
31501;BME280;31032;49.512;10.892;2022-08-05T02:54:27;97422.13;;;23.03;63.76
31501;BME280;31032;49.512;10.892;2022-08-05T02:56:53;97414.16;;;23.03;64.14
31501;BME280;31032;49.512;10.892;2022-08-05T02:59:19;97413.34;;;22.78;64.59
31501;BME280;31032;49.512;10.892;2022-08-05T03:01:46;97412.84;;;22.88;64.28
31501;BME280;31032;49.512;10.892;2022-08-05T03:04:16;97459.97;;;22.23;66.64
31501;BME280;31032;49.512;10.892;2022-08-05T03:06:43;97514.28;;;22.08;66.11
31501;BME280;31032;49.512;10.892;2022-08-05T03:09:11;97454.91;;;22.60;63.11
31501;BME280;31032;49.512;10.892;2022-08-05T03:11:40;97463.91;;;22.90;61.88
31501;BME280;31032;49.512;10.892;2022-08-05T03:14:06;97472.94;;;23.07;61.86
31501;BME280;31032;49.512;10.892;2022-08-05T03:16:31;97470.81;;;23.15;61.11
31501;BME280;31032;49.512;10.892;2022-08-05T03:18:56;97467.47;;;23.26;60.21
31501;BME280;31032;49.512;10.892;2022-08-05T03:21:21;97466.88;;;23.24;61.79
31501;BME280;31032;49.512;10.892;2022-08-05T03:23:47;97476.97;;;23.41;60.39
31501;BME280;31032;49.512;10.892;2022-08-05T03:26:12;97484.94;;;23.41;60.85
31501;BME280;31032;49.512;10.892;2022-08-05T03:28:38;97487.44;;;23.36;60.48
31501;BME280;31032;49.512;10.892;2022-08-05T03:31:04;97477.66;;;23.29;61.33
31501;BME280;31032;49.512;10.892;2022-08-05T03:33:30;97471.91;;;23.33;60.13
31501;BME280;31032;49.512;10.892;2022-08-05T03:35:57;97472.75;;;23.33;59.38
31501;BME280;31032;49.512;10.892;2022-08-05T03:38:24;97470.72;;;23.53;58.99
31501;BME280;31032;49.512;10.892;2022-08-05T03:40:49;97461.28;;;23.57;58.99
31501;BME280;31032;49.512;10.892;2022-08-05T03:43:15;97463.56;;;23.54;59.05
31501;BME280;31032;49.512;10.892;2022-08-05T03:45:42;97463.41;;;23.49;59.76
31501;BME280;31032;49.512;10.892;2022-08-05T03:48:07;97473.50;;;23.40;60.36
31501;BME280;31032;49.512;10.892;2022-08-05T03:50:41;97474.16;;;23.36;60.80
31501;BME280;31032;49.512;10.892;2022-08-05T03:53:11;97473.56;;;23.34;60.61
31501;BME280;31032;49.512;10.892;2022-08-05T03:55:49;97482.16;;;23.29;61.12
31501;BME280;31032;49.512;10.892;2022-08-05T03:58:17;97490.72;;;23.56;59.51
31501;BME280;31032;49.512;10.892;2022-08-05T04:00:48;97492.03;;;23.47;60.58
31501;BME280;31032;49.512;10.892;2022-08-05T04:03:14;97486.75;;;23.65;58.96
31501;BME280;31032;49.512;10.892;2022-08-05T04:05:42;97487.44;;;23.36;60.38
31501;BME280;31032;49.512;10.892;2022-08-05T04:08:09;97487.53;;;23.22;60.53
31501;BME280;31032;49.512;10.892;2022-08-05T04:10:36;97485.03;;;23.27;60.17
31501;BME280;31032;49.512;10.892;2022-08-05T04:13:01;97487.13;;;23.19;61.50
31501;BME280;31032;49.512;10.892;2022-08-05T04:15:27;97482.63;;;23.19;60.61
31501;BME280;31032;49.512;10.892;2022-08-05T04:17:53;97491.06;;;23.16;61.07
31501;BME280;31032;49.512;10.892;2022-08-05T04:20:23;97489.06;;;23.05;61.73
31501;BME280;31032;49.512;10.892;2022-08-05T04:22:48;97486.50;;;22.99;62.22
31501;BME280;31032;49.512;10.892;2022-08-05T04:25:14;97486.00;;;23.08;61.41
31501;BME280;31032;49.512;10.892;2022-08-05T04:27:40;97490.00;;;23.17;61.07
31501;BME280;31032;49.512;10.892;2022-08-05T04:30:08;97492.38;;;23.32;60.31
31501;BME280;31032;49.512;10.892;2022-08-05T04:32:33;97492.03;;;23.22;60.62
31501;BME280;31032;49.512;10.892;2022-08-05T04:34:59;97490.38;;;23.21;60.61
31501;BME280;31032;49.512;10.892;2022-08-05T04:37:24;97484.69;;;23.17;60.99
31501;BME280;31032;49.512;10.892;2022-08-05T04:39:49;97478.69;;;23.28;61.03
31501;BME280;31032;49.512;10.892;2022-08-05T04:42:15;97477.31;;;23.19;60.98
31501;BME280;31032;49.512;10.892;2022-08-05T04:44:40;97481.50;;;23.09;60.85
31501;BME280;31032;49.512;10.892;2022-08-05T04:47:06;97487.56;;;22.91;61.50
31501;BME280;31032;49.512;10.892;2022-08-05T04:49:31;97487.38;;;22.86;62.54
31501;BME280;31032;49.512;10.892;2022-08-05T04:51:57;97496.84;;;23.07;61.68
31501;BME280;31032;49.512;10.892;2022-08-05T04:54:22;97498.94;;;22.67;63.09
31501;BME280;31032;49.512;10.892;2022-08-05T04:56:54;97502.25;;;22.63;63.46
31501;BME280;31032;49.512;10.892;2022-08-05T04:59:19;97511.13;;;22.81;62.88
31501;BME280;31032;49.512;10.892;2022-08-05T05:01:47;97518.00;;;22.89;62.69
31501;BME280;31032;49.512;10.892;2022-08-05T05:04:12;97514.97;;;22.85;62.79
31501;BME280;31032;49.512;10.892;2022-08-05T05:06:38;97521.03;;;22.92;63.12
31501;BME280;31032;49.512;10.892;2022-08-05T05:09:03;97533.59;;;23.10;62.58
31501;BME280;31032;49.512;10.892;2022-08-05T05:11:28;97534.00;;;22.76;63.61
31501;BME280;31032;49.512;10.892;2022-08-05T05:13:54;97534.50;;;22.60;64.85
31501;BME280;31032;49.512;10.892;2022-08-05T05:16:19;97549.56;;;22.72;64.59
31501;BME280;31032;49.512;10.892;2022-08-05T05:18:44;97565.66;;;22.77;64.17
31501;BME280;31032;49.512;10.892;2022-08-05T05:21:10;97578.44;;;22.93;63.52
31501;BME280;31032;49.512;10.892;2022-08-05T05:23:35;97585.38;;;23.25;63.02
31501;BME280;31032;49.512;10.892;2022-08-05T05:26:00;97567.41;;;23.52;61.63
31501;BME280;31032;49.512;10.892;2022-08-05T05:28:26;97560.00;;;23.61;nan
31501;BME280;31032;49.512;10.892;2022-08-05T05:30:51;97551.16;;;23.85;61.19
31501;BME280;31032;49.512;10.892;2022-08-05T05:33:16;97545.78;;;23.91;61.26
31501;BME280;31032;49.512;10.892;2022-08-05T05:35:43;97544.69;;;23.99;60.06
31501;BME280;31032;49.512;10.892;2022-08-05T05:38:09;97549.59;;;24.20;59.81
31501;BME280;31032;49.512;10.892;2022-08-05T05:40:34;97556.09;;;24.24;60.24
31501;BME280;31032;49.512;10.892;2022-08-05T05:43:00;97558.59;;;24.37;59.68
31501;BME280;31032;49.512;10.892;2022-08-05T05:45:25;97558.25;;;24.52;59.61
31501;BME280;31032;49.512;10.892;2022-08-05T05:47:51;97561.84;;;24.57;59.11
31501;BME280;31032;49.512;10.892;2022-08-05T05:50:17;97569.84;;;24.75;58.61
31501;BME280;31032;49.512;10.892;2022-08-05T05:52:44;97572.09;;;24.90;59.67
31501;BME280;31032;49.512;10.892;2022-08-05T05:55:12;97585.09;;;24.98;59.87
31501;BME280;31032;49.512;10.892;2022-08-05T05:57:39;97593.69;;;25.00;59.08
31501;BME280;31032;49.512;10.892;2022-08-05T06:00:08;97595.22;;;25.08;59.80
31501;BME280;31032;49.512;10.892;2022-08-05T06:02:34;97616.06;;;25.11;59.58
31501;BME280;31032;49.512;10.892;2022-08-05T06:04:59;97665.91;;;24.92;60.36
31501;BME280;31032;49.512;10.892;2022-08-05T06:07:24;97688.84;;;24.93;60.42
31501;BME280;31032;49.512;10.892;2022-08-05T06:09:50;97697.94;;;24.85;59.16
31501;BME280;31032;49.512;10.892;2022-08-05T06:12:15;97684.47;;;24.80;59.88
31501;BME280;31032;49.512;10.892;2022-08-05T06:14:41;97697.06;;;24.73;60.93
31501;BME280;31032;49.512;10.892;2022-08-05T06:17:09;97690.34;;;24.64;61.29
31501;BME280;31032;49.512;10.892;2022-08-05T06:19:34;97687.78;;;24.58;62.31
31501;BME280;31032;49.512;10.892;2022-08-05T06:21:59;97686.81;;;24.52;62.17
31501;BME280;31032;49.512;10.892;2022-08-05T06:24:25;97696.59;;;24.58;62.37
31501;BME280;31032;49.512;10.892;2022-08-05T06:26:50;97702.41;;;24.49;62.76
31501;BME280;31032;49.512;10.892;2022-08-05T06:29:15;97706.34;;;24.46;63.03
31501;BME280;31032;49.512;10.892;2022-08-05T06:31:41;97702.75;;;24.34;63.78
31501;BME280;31032;49.512;10.892;2022-08-05T06:34:06;97702.75;;;24.34;64.13
31501;BME280;31032;49.512;10.892;2022-08-05T06:36:31;97717.25;;;24.38;63.80
31501;BME280;31032;49.512;10.892;2022-08-05T06:38:57;97725.66;;;24.35;63.87
31501;BME280;31032;49.512;10.892;2022-08-05T06:41:22;97724.78;;;24.41;64.90
31501;BME280;31032;49.512;10.892;2022-08-05T06:43:48;97717.41;;;24.43;64.92
31501;BME280;31032;49.512;10.892;2022-08-05T06:46:14;97727.78;;;24.51;64.85
31501;BME280;31032;49.512;10.892;2022-08-05T06:48:40;97725.72;;;24.71;64.67
31501;BME280;31032;49.512;10.892;2022-08-05T06:51:05;97742.91;;;24.93;64.65
31501;BME280;31032;49.512;10.892;2022-08-05T06:53:31;97736.72;;;25.18;64.17
31501;BME280;31032;49.512;10.892;2022-08-05T06:55:57;97742.09;;;25.29;64.07
31501;BME280;31032;49.512;10.892;2022-08-05T06:58:23;97760.88;;;25.34;63.09
31501;BME280;31032;49.512;10.892;2022-08-05T07:00:49;97758.78;;;25.43;63.33
31501;BME280;31032;49.512;10.892;2022-08-05T07:03:14;97752.47;;;25.37;63.04
31501;BME280;31032;49.512;10.892;2022-08-05T07:05:40;97770.16;;;25.50;63.25
31501;BME280;31032;49.512;10.892;2022-08-05T07:08:05;97764.22;;;25.48;62.56
31501;BME280;31032;49.512;10.892;2022-08-05T07:10:31;97760.94;;;25.64;62.00
31501;BME280;31032;49.512;10.892;2022-08-05T07:12:57;97761.34;;;25.79;61.48
31501;BME280;31032;49.512;10.892;2022-08-05T07:15:40;97767.97;;;25.88;61.71
31501;BME280;31032;49.512;10.892;2022-08-05T07:18:24;97773.44;;;26.11;60.39
31501;BME280;31032;49.512;10.892;2022-08-05T07:20:50;97756.66;;;26.04;59.76
31501;BME280;31032;49.512;10.892;2022-08-05T07:23:15;97768.66;;;26.13;59.48
31501;BME280;31032;49.512;10.892;2022-08-05T07:25:40;97765.81;;;26.26;60.33
31501;BME280;31032;49.512;10.892;2022-08-05T07:28:05;97771.50;;;26.41;59.49
31501;BME280;31032;49.512;10.892;2022-08-05T07:30:33;97773.94;;;26.43;58.66
31501;BME280;31032;49.512;10.892;2022-08-05T07:33:03;97768.25;;;26.62;58.79
31501;BME280;31032;49.512;10.892;2022-08-05T07:35:29;97780.47;;;26.58;58.10
31501;BME280;31032;49.512;10.892;2022-08-05T07:37:54;97782.19;;;26.53;57.49
31501;BME280;31032;49.512;10.892;2022-08-05T07:40:20;97788.81;;;26.50;59.03
31501;BME280;31032;49.512;10.892;2022-08-05T07:42:46;97781.13;;;26.65;58.93
31501;BME280;31032;49.512;10.892;2022-08-05T07:45:12;97772.59;;;26.87;57.99
31501;BME280;31032;49.512;10.892;2022-08-05T07:47:38;97782.91;;;27.06;57.80
31501;BME280;31032;49.512;10.892;2022-08-05T07:50:03;97792.66;;;27.01;57.85
31501;BME280;31032;49.512;10.892;2022-08-05T07:52:29;97781.66;;;26.86;58.01
31501;BME280;31032;49.512;10.892;2022-08-05T07:54:55;97797.09;;;26.95;57.60
31501;BME280;31032;49.512;10.892;2022-08-05T07:57:20;97790.00;;;26.89;57.56
31501;BME280;31032;49.512;10.892;2022-08-05T07:59:45;97783.06;;;26.76;57.25
31501;BME280;31032;49.512;10.892;2022-08-05T08:02:11;97779.81;;;26.74;56.79
31501;BME280;31032;49.512;10.892;2022-08-05T08:04:36;97772.78;;;26.50;57.50
31501;BME280;31032;49.512;10.892;2022-08-05T08:07:01;97774.53;;;26.45;57.96
31501;BME280;31032;49.512;10.892;2022-08-05T08:09:27;97769.75;;;26.35;58.15
31501;BME280;31032;49.512;10.892;2022-08-05T08:11:52;97772.34;;;26.53;58.06
31501;BME280;31032;49.512;10.892;2022-08-05T08:14:18;97775.59;;;26.55;57.38
31501;BME280;31032;49.512;10.892;2022-08-05T08:16:44;97780.69;;;26.68;57.90
31501;BME280;31032;49.512;10.892;2022-08-05T08:19:09;97787.91;;;26.79;56.93
31501;BME280;31032;49.512;10.892;2022-08-05T08:21:35;97792.09;;;26.99;55.76
31501;BME280;31032;49.512;10.892;2022-08-05T08:24:00;97793.41;;;26.85;55.55
31501;BME280;31032;49.512;10.892;2022-08-05T08:26:25;97789.75;;;26.91;56.39
31501;BME280;31032;49.512;10.892;2022-08-05T08:28:51;97782.00;;;26.89;56.06
31501;BME280;31032;49.512;10.892;2022-08-05T08:31:16;97789.41;;;27.10;56.38
31501;BME280;31032;49.512;10.892;2022-08-05T08:33:45;97803.31;;;27.24;56.07
31501;BME280;31032;49.512;10.892;2022-08-05T08:36:10;97790.78;;;27.36;55.90
31501;BME280;31032;49.512;10.892;2022-08-05T08:38:36;97787.38;;;27.80;54.66
31501;BME280;31032;49.512;10.892;2022-08-05T08:41:06;97789.78;;;27.93;53.80
31501;BME280;31032;49.512;10.892;2022-08-05T08:43:33;97788.44;;;28.07;53.41
31501;BME280;31032;49.512;10.892;2022-08-05T08:46:00;97795.31;;;28.03;53.34
31501;BME280;31032;49.512;10.892;2022-08-05T08:48:26;97795.28;;;27.87;54.19
31501;BME280;31032;49.512;10.892;2022-08-05T08:50:52;97797.81;;;27.93;52.87
31501;BME280;31032;49.512;10.892;2022-08-05T08:53:18;97804.19;;;27.92;53.07
31501;BME280;31032;49.512;10.892;2022-08-05T08:55:44;97803.53;;;27.85;51.96
31501;BME280;31032;49.512;10.892;2022-08-05T08:58:10;97802.28;;;27.76;50.64
31501;BME280;31032;49.512;10.892;2022-08-05T09:00:35;97803.91;;;27.77;50.43
31501;BME280;31032;49.512;10.892;2022-08-05T09:03:01;97801.75;;;27.62;50.66
31501;BME280;31032;49.512;10.892;2022-08-05T09:05:29;97795.97;;;27.54;50.27
31501;BME280;31032;49.512;10.892;2022-08-05T09:07:54;97801.53;;;27.64;51.15
31501;BME280;31032;49.512;10.892;2022-08-05T09:10:20;97787.22;;;27.58;50.36
31501;BME280;31032;49.512;10.892;2022-08-05T09:12:45;97795.13;;;27.65;50.81
31501;BME280;31032;49.512;10.892;2022-08-05T09:15:11;97786.34;;;27.81;50.81
31501;BME280;31032;49.512;10.892;2022-08-05T09:17:36;97799.91;;;28.19;49.22
31501;BME280;31032;49.512;10.892;2022-08-05T09:20:04;97791.47;;;28.27;48.73
31501;BME280;31032;49.512;10.892;2022-08-05T09:25:27;97791.59;;;28.66;46.19
31501;BME280;31032;49.512;10.892;2022-08-05T09:27:52;97788.75;;;28.72;46.30
31501;BME280;31032;49.512;10.892;2022-08-05T09:30:18;97784.22;;;28.94;45.52
31501;BME280;31032;49.512;10.892;2022-08-05T09:32:44;97789.78;;;29.26;45.47
31501;BME280;31032;49.512;10.892;2022-08-05T09:35:14;97789.22;;;29.24;45.18
31501;BME280;31032;49.512;10.892;2022-08-05T09:37:52;97783.63;;;29.47;43.50
31501;BME280;31032;49.512;10.892;2022-08-05T09:42:59;97768.50;;;29.63;42.63
31501;BME280;31032;49.512;10.892;2022-08-05T09:45:35;97784.78;;;29.56;42.39
31501;BME280;31032;49.512;10.892;2022-08-05T09:48:17;97783.66;;;29.52;42.56
31501;BME280;31032;49.512;10.892;2022-08-05T09:50:48;97779.72;;;29.81;42.99
31501;BME280;31032;49.512;10.892;2022-08-05T09:53:14;97768.19;;;29.59;43.15
31501;BME280;31032;49.512;10.892;2022-08-05T09:55:39;97769.09;;;29.91;42.32
31501;BME280;31032;49.512;10.892;2022-08-05T09:58:12;97761.81;;;30.13;41.90
31501;BME280;31032;49.512;10.892;2022-08-05T10:00:38;97764.69;;;30.34;41.53
31501;BME280;31032;49.512;10.892;2022-08-05T10:03:09;97751.97;;;30.56;39.88
31501;BME280;31032;49.512;10.892;2022-08-05T10:05:35;97750.22;;;30.40;40.03
31501;BME280;31032;49.512;10.892;2022-08-05T10:08:03;97760.09;;;30.29;40.13
31501;BME280;31032;49.512;10.892;2022-08-05T10:10:36;97762.91;;;30.49;39.47
31501;BME280;31032;49.512;10.892;2022-08-05T10:13:03;97762.53;;;30.36;39.45
31501;BME280;31032;49.512;10.892;2022-08-05T10:15:34;97758.50;;;30.33;39.04
31501;BME280;31032;49.512;10.892;2022-08-05T10:20:50;97763.56;;;30.30;39.36
31501;BME280;31032;49.512;10.892;2022-08-05T10:23:19;97753.84;;;30.23;39.74
31501;BME280;31032;49.512;10.892;2022-08-05T10:25:45;97758.38;;;30.50;39.65
31501;BME280;31032;49.512;10.892;2022-08-05T10:28:11;97764.25;;;30.47;39.08
31501;BME280;31032;49.512;10.892;2022-08-05T10:30:37;97760.50;;;30.48;39.54
31501;BME280;31032;49.512;10.892;2022-08-05T10:33:03;97763.91;;;30.70;39.17
31501;BME280;31032;49.512;10.892;2022-08-05T10:35:32;97748.94;;;30.47;39.29
31501;BME280;31032;49.512;10.892;2022-08-05T10:37:58;97753.94;;;30.70;38.85
31501;BME280;31032;49.512;10.892;2022-08-05T10:42:55;97750.38;;;31.01;37.42
31501;BME280;31032;49.512;10.892;2022-08-05T10:45:25;97753.63;;;31.03;37.51
31501;BME280;31032;49.512;10.892;2022-08-05T10:47:51;97739.44;;;31.18;38.33
31501;BME280;31032;49.512;10.892;2022-08-05T10:50:17;97746.19;;;30.79;37.97
31501;BME280;31032;49.512;10.892;2022-08-05T10:52:44;97748.44;;;30.50;38.72
31501;BME280;31032;49.512;10.892;2022-08-05T10:55:16;97747.63;;;30.55;38.57
31501;BME280;31032;49.512;10.892;2022-08-05T10:57:43;97739.34;;;30.61;39.03
31501;BME280;31032;49.512;10.892;2022-08-05T11:00:18;97735.28;;;30.59;39.16
31501;BME280;31032;49.512;10.892;2022-08-05T11:05:31;97732.56;;;30.49;39.94
31501;BME280;31032;49.512;10.892;2022-08-05T11:08:03;97742.25;;;30.50;39.53
31501;BME280;31032;49.512;10.892;2022-08-05T11:10:29;97740.56;;;30.44;39.90
31501;BME280;31032;49.512;10.892;2022-08-05T11:12:56;97742.34;;;30.65;39.82
31501;BME280;31032;49.512;10.892;2022-08-05T11:15:23;97755.69;;;30.91;39.88
31501;BME280;31032;49.512;10.892;2022-08-05T11:17:52;97741.84;;;30.73;39.77
31501;BME280;31032;49.512;10.892;2022-08-05T11:26:06;97735.06;;;31.02;38.96
31501;BME280;31032;49.512;10.892;2022-08-05T11:33:26;97731.66;;;32.04;38.15
31501;BME280;31032;49.512;10.892;2022-08-05T11:36:00;97735.41;;;32.28;37.98
31501;BME280;31032;49.512;10.892;2022-08-05T11:41:16;97737.03;;;32.04;37.73
31501;BME280;31032;49.512;10.892;2022-08-05T11:44:01;97736.72;;;31.90;37.90
31501;BME280;31032;49.512;10.892;2022-08-05T11:49:04;97735.50;;;31.41;39.21
31501;BME280;31032;49.512;10.892;2022-08-05T11:51:30;97735.28;;;30.95;39.05
31501;BME280;31032;49.512;10.892;2022-08-05T11:53:56;97733.22;;;30.71;39.93
31501;BME280;31032;49.512;10.892;2022-08-05T11:56:23;97731.81;;;31.00;40.16
31501;BME280;31032;49.512;10.892;2022-08-05T11:58:50;97731.91;;;31.20;39.42
31501;BME280;31032;49.512;10.892;2022-08-05T12:01:20;97732.09;;;31.70;38.34
31501;BME280;31032;49.512;10.892;2022-08-05T12:03:48;97733.75;;;31.76;37.57
31501;BME280;31032;49.512;10.892;2022-08-05T12:06:20;97734.78;;;31.75;38.37
31501;BME280;31032;49.512;10.892;2022-08-05T12:08:47;97734.31;;;31.98;38.11
31501;BME280;31032;49.512;10.892;2022-08-05T12:14:01;97740.53;;;32.39;36.73
31501;BME280;31032;49.512;10.892;2022-08-05T12:16:28;97738.41;;;32.51;36.81
31501;BME280;31032;49.512;10.892;2022-08-05T12:18:55;97735.13;;;32.39;37.31
31501;BME280;31032;49.512;10.892;2022-08-05T12:21:24;97734.31;;;32.79;35.22
31501;BME280;31032;49.512;10.892;2022-08-05T12:23:56;97732.16;;;32.76;36.28
31501;BME280;31032;49.512;10.892;2022-08-05T12:26:22;97732.19;;;32.71;36.57
31501;BME280;31032;49.512;10.892;2022-08-05T12:28:48;97731.09;;;32.57;36.05
31501;BME280;31032;49.512;10.892;2022-08-05T12:31:13;97725.16;;;32.65;36.77
31501;BME280;31032;49.512;10.892;2022-08-05T12:33:41;97722.22;;;32.26;36.60
31501;BME280;31032;49.512;10.892;2022-08-05T12:36:07;97719.78;;;32.30;36.22
31501;BME280;31032;49.512;10.892;2022-08-05T12:38:33;97727.88;;;32.40;37.23
31501;BME280;31032;49.512;10.892;2022-08-05T12:41:00;97730.00;;;32.33;36.36
31501;BME280;31032;49.512;10.892;2022-08-05T12:43:25;97707.41;;;32.19;36.10
31501;BME280;31032;49.512;10.892;2022-08-05T12:45:52;97720.59;;;32.30;35.61
31501;BME280;31032;49.512;10.892;2022-08-05T12:48:17;97721.13;;;32.37;36.25
31501;BME280;31032;49.512;10.892;2022-08-05T12:50:43;97712.81;;;32.44;36.05
31501;BME280;31032;49.512;10.892;2022-08-05T12:53:14;97714.91;;;32.77;35.61
31501;BME280;31032;49.512;10.892;2022-08-05T12:55:40;97710.59;;;32.41;36.69
31501;BME280;31032;49.512;10.892;2022-08-05T12:58:06;97714.94;;;32.42;36.53
31501;BME280;31032;49.512;10.892;2022-08-05T13:00:32;97709.81;;;32.50;35.76
31501;BME280;31032;49.512;10.892;2022-08-05T13:03:00;97703.50;;;32.95;36.17
31501;BME280;31032;49.512;10.892;2022-08-05T13:05:25;97709.47;;;32.97;35.71
31501;BME280;31032;49.512;10.892;2022-08-05T13:07:56;97711.31;;;33.07;35.91
31501;BME280;31032;49.512;10.892;2022-08-05T13:10:22;97711.91;;;32.83;36.31
31501;BME280;31032;49.512;10.892;2022-08-05T13:12:48;97703.06;;;32.53;36.24
31501;BME280;31032;49.512;10.892;2022-08-05T13:15:13;97696.84;;;32.67;36.26
31501;BME280;31032;49.512;10.892;2022-08-05T13:17:39;97702.34;;;33.16;35.41
31501;BME280;31032;49.512;10.892;2022-08-05T13:20:13;97707.09;;;33.39;35.08
31501;BME280;31032;49.512;10.892;2022-08-05T13:22:52;97696.19;;;33.11;35.34
31501;BME280;31032;49.512;10.892;2022-08-05T13:25:19;97696.19;;;33.16;35.27
31501;BME280;31032;49.512;10.892;2022-08-05T13:27:50;97687.59;;;33.57;35.88
31501;BME280;31032;49.512;10.892;2022-08-05T13:30:17;97694.38;;;33.94;34.44